Time;durP1;ratioP1;P1;durP2;ratioP2;P2;SDS_P1;SDS_P2;PMS_P1;PMS_P2;Temp;Humidity;BMP_temperature;BMP_pressure;BME280_temperature;BME280_humidity;BME280_pressure;Samples;Min_cycle;Max_cycle;Signal;HPM_P1;HPM_P2
2023/06/22 00:01:53;;;;;;;;;;;;;;;19.67;100.00;95926.34;5045581;28;19929;-73
2023/06/22 00:04:20;;;;;;;;;;;;;;;19.75;100.00;95921.97;5048917;28;19971;-73
2023/06/22 00:06:46;;;;;;;;;;;;;;;19.87;100.00;95925.19;5049233;28;19971;-73
2023/06/22 00:09:12;;;;;;;;;;;;;;;19.65;100.00;95936.16;5048245;28;20288;-73
2023/06/22 00:11:38;;;;;;;;;;;;;;;19.69;100.00;95940.13;5046102;28;19929;-73
2023/06/22 00:14:05;;;;;;;;;;;;;;;19.85;100.00;95921.91;5043071;28;19928;-73
2023/06/22 00:16:33;;;;;;;;;;;;;;;20.07;100.00;95918.00;5045717;28;19988;-74
2023/06/22 00:19:01;;;;;;;;;;;;;;;19.67;100.00;95940.28;5048826;28;19929;-73
2023/06/22 00:21:28;;;;;;;;;;;;;;;19.40;100.00;95945.53;5051934;28;19929;-73
2023/06/22 00:23:54;;;;;;;;;;;;;;;19.56;100.00;95933.41;5047268;28;19940;-73
2023/06/22 00:26:20;;;;;;;;;;;;;;;19.56;100.00;95936.03;5047420;28;19925;-73
2023/06/22 00:28:47;;;;;;;;;;;;;;;19.63;100.00;95944.19;5045830;28;19937;-73
2023/06/22 00:31:13;;;;;;;;;;;;;;;19.55;100.00;95915.19;5048651;28;19928;-72
2023/06/22 00:33:41;;;;;;;;;;;;;;;19.69;100.00;95914.72;5048981;28;19970;-73
2023/06/22 00:36:07;;;;;;;;;;;;;;;19.52;100.00;95958.31;5051013;28;19937;-73
2023/06/22 00:38:34;;;;;;;;;;;;;;;19.39;100.00;95988.53;5046907;28;20017;-73
2023/06/22 00:41:00;;;;;;;;;;;;;;;19.44;100.00;95981.88;5049883;28;19933;-73
2023/06/22 00:43:26;;;;;;;;;;;;;;;19.52;100.00;95971.47;5045402;28;19929;-74
2023/06/22 00:45:52;;;;;;;;;;;;;;;19.28;100.00;95989.53;5049307;28;19928;-73
2023/06/22 00:48:19;;;;;;;;;;;;;;;19.10;100.00;96010.47;5047156;28;19925;-73
2023/06/22 00:50:50;;;;;;;;;;;;;;;18.75;100.00;96017.16;5041177;28;19932;-73
2023/06/22 00:53:17;;;;;;;;;;;;;;;18.86;100.00;95976.81;5044233;28;20387;-73
2023/06/22 00:55:46;;;;;;;;;;;;;;;19.20;100.00;95952.66;5045751;28;19931;-72
2023/06/22 00:58:13;;;;;;;;;;;;;;;19.12;100.00;95968.31;5047560;28;19975;-73
2023/06/22 01:00:40;;;;;;;;;;;;;;;19.10;100.00;95963.22;5042884;28;20284;-73
2023/06/22 01:03:08;;;;;;;;;;;;;;;19.16;100.00;95948.69;5046440;28;19971;-72
2023/06/22 01:05:35;;;;;;;;;;;;;;;19.13;100.00;95941.09;5049433;28;19928;-73
2023/06/22 01:08:17;;;;;;;;;;;;;;;19.00;100.00;95937.00;5047194;28;19925;-73
2023/06/22 01:10:45;;;;;;;;;;;;;;;19.14;100.00;95933.09;5045423;28;20028;-73
2023/06/22 01:13:19;;;;;;;;;;;;;;;18.98;100.00;95938.13;5044877;28;20410;-73
2023/06/22 01:15:49;;;;;;;;;;;;;;;19.10;100.00;95926.47;5043342;28;19935;-73
2023/06/22 01:18:15;;;;;;;;;;;;;;;19.05;100.00;95905.88;5046037;28;19925;-73
2023/06/22 01:20:42;;;;;;;;;;;;;;;19.09;100.00;95919.56;5045527;28;20050;-73
2023/06/22 01:23:11;;;;;;;;;;;;;;;19.15;100.00;95926.84;5043507;28;20966;-73
2023/06/22 01:25:44;;;;;;;;;;;;;;;19.13;100.00;95926.16;5049804;28;20386;-73
2023/06/22 01:28:18;;;;;;;;;;;;;;;19.23;100.00;95923.50;5039800;28;20051;-73
2023/06/22 01:30:46;;;;;;;;;;;;;;;19.15;100.00;95924.22;5045951;28;20387;-73
2023/06/22 01:33:14;;;;;;;;;;;;;;;19.14;100.00;95925.22;5040527;28;19983;-73
2023/06/22 01:35:40;;;;;;;;;;;;;;;19.07;100.00;95929.38;5047958;28;19925;-74
2023/06/22 01:38:07;;;;;;;;;;;;;;;19.05;100.00;95926.06;5048533;28;19951;-73
2023/06/22 01:40:34;;;;;;;;;;;;;;;19.16;100.00;95933.75;5048695;28;19928;-73
2023/06/22 01:43:01;;;;;;;;;;;;;;;19.10;100.00;95921.22;5038136;28;19929;-73
2023/06/22 01:45:28;;;;;;;;;;;;;;;19.02;100.00;95932.47;5046062;28;19925;-73
2023/06/22 01:47:56;;;;;;;;;;;;;;;18.77;100.00;95940.97;5050407;28;19986;-74
2023/06/22 01:50:24;;;;;;;;;;;;;;;18.73;100.00;95937.78;5048939;28;21259;-74
2023/06/22 01:52:51;;;;;;;;;;;;;;;18.89;100.00;95941.63;5045982;28;19937;-73
2023/06/22 01:55:17;;;;;;;;;;;;;;;18.93;100.00;95951.66;5040176;28;20402;-73
2023/06/22 01:57:43;;;;;;;;;;;;;;;18.86;100.00;95961.09;5042769;28;20425;-73
2023/06/22 02:00:12;;;;;;;;;;;;;;;18.79;100.00;95952.94;5047938;28;19936;-73
2023/06/22 02:02:42;;;;;;;;;;;;;;;18.97;100.00;95952.22;5045894;28;19929;-73
2023/06/22 02:05:10;;;;;;;;;;;;;;;19.03;100.00;95951.66;5039446;28;19932;-73
2023/06/22 02:07:41;;;;;;;;;;;;;;;19.02;100.00;95950.81;5042736;28;19982;-73
2023/06/22 02:10:09;;;;;;;;;;;;;;;19.06;100.00;95952.19;5049203;28;20059;-73
2023/06/22 02:12:36;;;;;;;;;;;;;;;19.08;100.00;95938.91;5047771;28;20394;-72
2023/06/22 02:15:03;;;;;;;;;;;;;;;18.98;100.00;95932.88;5039830;28;19928;-72
2023/06/22 02:17:33;;;;;;;;;;;;;;;18.90;100.00;95933.59;5039229;28;19925;-72
2023/06/22 02:19:59;;;;;;;;;;;;;;;18.72;100.00;95927.44;5050088;28;19960;-72
2023/06/22 02:22:26;;;;;;;;;;;;;;;18.53;100.00;95915.97;5047731;28;19929;-72
2023/06/22 02:24:53;;;;;;;;;;;;;;;18.51;100.00;95912.69;5049824;28;20406;-72
2023/06/22 02:27:19;;;;;;;;;;;;;;;18.38;100.00;95910.34;5047470;28;19929;-72
2023/06/22 02:29:45;;;;;;;;;;;;;;;18.33;100.00;95912.56;5052730;28;19925;-72
2023/06/22 02:32:11;;;;;;;;;;;;;;;18.34;100.00;95921.28;5046583;28;19925;-72
2023/06/22 02:34:38;;;;;;;;;;;;;;;18.30;100.00;95922.53;5050799;28;19924;-72
2023/06/22 02:37:04;;;;;;;;;;;;;;;18.32;100.00;95915.34;5050699;28;19925;-71
2023/06/22 02:39:32;;;;;;;;;;;;;;;18.38;100.00;95912.16;5052986;28;19931;-71
2023/06/22 02:41:58;;;;;;;;;;;;;;;18.46;100.00;95911.44;5051202;28;19929;-73
2023/06/22 02:44:25;;;;;;;;;;;;;;;18.44;100.00;95916.84;5052542;28;19925;-73
2023/06/22 02:46:51;;;;;;;;;;;;;;;18.42;100.00;95910.91;5052824;28;19928;-72
2023/06/22 02:49:17;;;;;;;;;;;;;;;18.46;100.00;95909.66;5052560;28;19929;-72
2023/06/22 02:51:46;;;;;;;;;;;;;;;18.53;100.00;95905.50;5053674;28;20007;-72
2023/06/22 02:54:12;;;;;;;;;;;;;;;18.58;100.00;95913.78;5047657;28;19991;-72
2023/06/22 02:56:40;;;;;;;;;;;;;;;18.47;100.00;95915.75;5046156;28;19979;-72
2023/06/22 02:59:06;;;;;;;;;;;;;;;18.53;100.00;95915.97;5050549;28;19929;-72
2023/06/22 03:01:37;;;;;;;;;;;;;;;18.48;100.00;95909.53;5053541;28;20341;-72
2023/06/22 03:04:04;;;;;;;;;;;;;;;18.48;100.00;95906.91;5048541;28;19925;-72
2023/06/22 03:06:30;;;;;;;;;;;;;;;18.42;100.00;95910.91;5052691;28;19948;-72
2023/06/22 03:08:56;;;;;;;;;;;;;;;18.44;100.00;95908.97;5039490;28;19933;-72
2023/06/22 03:11:22;;;;;;;;;;;;;;;18.35;100.00;95897.53;5045870;28;19967;-72
2023/06/22 03:13:52;;;;;;;;;;;;;;;18.30;100.00;95912.84;5049726;28;19928;-72
2023/06/22 03:16:18;;;;;;;;;;;;;;;18.27;100.00;95913.13;5047878;28;20016;-72
2023/06/22 03:18:44;;;;;;;;;;;;;;;18.30;100.00;95907.59;5050866;28;19995;-73
2023/06/22 03:21:11;;;;;;;;;;;;;;;18.34;100.00;95902.91;5049463;28;19925;-72
2023/06/22 03:23:37;;;;;;;;;;;;;;;18.27;100.00;95897.41;5047835;28;19933;-72
2023/06/22 03:26:03;;;;;;;;;;;;;;;18.26;100.00;95887.06;5049351;28;19924;-72
2023/06/22 03:28:30;;;;;;;;;;;;;;;18.25;100.00;95898.53;5044833;28;19924;-72
2023/06/22 03:30:58;;;;;;;;;;;;;;;18.28;100.00;95896.44;5048712;28;19928;-72
2023/06/22 03:33:25;;;;;;;;;;;;;;;18.31;100.00;95892.69;5046651;28;19933;-72
2023/06/22 03:35:51;;;;;;;;;;;;;;;18.28;100.00;95899.06;5052518;28;19929;-72
2023/06/22 03:38:17;;;;;;;;;;;;;;;18.26;100.00;95892.31;5049009;28;19929;-72
2023/06/22 03:40:44;;;;;;;;;;;;;;;18.24;100.00;95892.44;5051411;28;19997;-72
2023/06/22 03:43:10;;;;;;;;;;;;;;;18.25;100.00;95888.03;5046486;28;19933;-72
2023/06/22 03:45:36;;;;;;;;;;;;;;;18.24;100.00;95884.56;5045260;28;19929;-72
2023/06/22 03:48:04;;;;;;;;;;;;;;;18.06;100.00;95881.84;5048827;28;19929;-72
2023/06/22 03:50:30;;;;;;;;;;;;;;;18.01;100.00;95889.28;5050227;28;19948;-72
2023/06/22 03:52:57;;;;;;;;;;;;;;;18.03;100.00;95879.50;5047095;28;20393;-71
2023/06/22 03:55:23;;;;;;;;;;;;;;;18.01;100.00;95891.91;5040588;28;19929;-72
2023/06/22 03:57:49;;;;;;;;;;;;;;;18.10;100.00;95891.09;5043208;28;19924;-71
2023/06/22 04:00:16;;;;;;;;;;;;;;;18.11;100.00;95887.50;5045864;28;19971;-72
2023/06/22 04:02:43;;;;;;;;;;;;;;;17.96;100.00;95881.03;5048078;28;19955;-72
2023/06/22 04:05:10;;;;;;;;;;;;;;;17.93;100.00;95877.84;5048854;28;19928;-72
2023/06/22 04:07:37;;;;;;;;;;;;;;;17.87;100.00;95872.22;5047089;28;19940;-72
2023/06/22 04:10:04;;;;;;;;;;;;;;;17.85;100.00;95878.56;5049302;28;20019;-72
2023/06/22 04:12:30;;;;;;;;;;;;;;;17.69;100.00;95878.22;5047901;28;19979;-72
2023/06/22 04:14:56;;;;;;;;;;;;;;;17.71;100.00;95873.69;5050635;28;20340;-72
2023/06/22 04:17:24;;;;;;;;;;;;;;;17.83;100.00;95875.22;5051198;28;19929;-71
2023/06/22 04:19:51;;;;;;;;;;;;;;;17.82;100.00;95876.19;5051385;28;19933;-72
2023/06/22 04:22:18;;;;;;;;;;;;;;;17.88;100.00;95873.03;5050384;28;19929;-72
2023/06/22 04:24:45;;;;;;;;;;;;;;;17.87;100.00;95876.59;5048759;28;19987;-72
2023/06/22 04:27:11;;;;;;;;;;;;;;;17.91;100.00;95870.16;5044139;28;19925;-72
2023/06/22 04:29:38;;;;;;;;;;;;;;;18.03;100.00;95861.16;5051119;28;19933;-72
2023/06/22 04:32:05;;;;;;;;;;;;;;;18.12;100.00;95855.06;5050823;28;19925;-72
2023/06/22 04:34:31;;;;;;;;;;;;;;;18.26;100.00;95850.38;5045263;28;19925;-72
2023/06/22 04:36:58;;;;;;;;;;;;;;;18.30;100.00;95854.34;5051373;28;19951;-72
2023/06/22 04:39:27;;;;;;;;;;;;;;;18.31;100.00;95856.81;5042456;28;20283;-72
2023/06/22 04:41:53;;;;;;;;;;;;;;;18.35;100.00;95852.13;5049825;28;19925;-72
2023/06/22 04:44:23;;;;;;;;;;;;;;;18.43;100.00;95852.25;5045058;28;19924;-72
2023/06/22 04:46:53;;;;;;;;;;;;;;;18.55;100.00;95853.72;5048943;28;19929;-72
2023/06/22 04:49:20;;;;;;;;;;;;;;;18.66;100.00;95850.09;5049220;28;19924;-73
2023/06/22 04:51:46;;;;;;;;;;;;;;;18.81;100.00;95842.63;5043258;28;19948;-72
2023/06/22 04:54:12;;;;;;;;;;;;;;;18.93;100.00;95851.94;5041325;28;19935;-72
2023/06/22 04:56:40;;;;;;;;;;;;;;;18.97;100.00;95858.56;5045152;28;19932;-72
2023/06/22 04:59:07;;;;;;;;;;;;;;;19.12;100.00;95852.81;5045078;28;20349;-72
2023/06/22 05:01:34;;;;;;;;;;;;;;;19.21;100.00;95863.28;5038687;28;20020;-72
2023/06/22 05:04:02;;;;;;;;;;;;;;;19.34;100.00;95849.78;5047178;28;19924;-72
2023/06/22 05:06:28;;;;;;;;;;;;;;;19.43;100.00;95843.66;5045377;28;19932;-72
2023/06/22 05:08:57;;;;;;;;;;;;;;;19.28;100.00;95843.34;5043138;28;19924;-72
2023/06/22 05:11:23;;;;;;;;;;;;;;;19.16;100.00;95841.03;5041257;28;20468;-72
2023/06/22 05:13:51;;;;;;;;;;;;;;;19.24;100.00;95836.69;5050197;28;19936;-72
2023/06/22 05:16:17;;;;;;;;;;;;;;;19.45;100.00;95838.22;5040995;28;19932;-72
2023/06/22 05:18:44;;;;;;;;;;;;;;;19.66;100.00;95835.34;5047413;28;20403;-72
2023/06/22 05:21:10;;;;;;;;;;;;;;;19.81;100.00;95824.16;5042640;28;20056;-72
2023/06/22 05:23:36;;;;;;;;;;;;;;;19.95;100.00;95827.19;5048501;28;19928;-73
2023/06/22 05:26:02;;;;;;;;;;;;;;;19.99;100.00;95824.13;5043354;28;19933;-73
2023/06/22 05:28:28;;;;;;;;;;;;;;;20.04;100.00;95826.28;5044972;28;19928;-73
2023/06/22 05:30:56;;;;;;;;;;;;;;;20.14;100.00;95836.72;5045882;28;20274;-73
2023/06/22 05:33:23;;;;;;;;;;;;;;;20.19;100.00;95832.63;5043336;28;19925;-73
2023/06/22 05:35:49;;;;;;;;;;;;;;;20.02;100.00;95829.09;5048656;28;19975;-72
2023/06/22 05:38:15;;;;;;;;;;;;;;;20.04;100.00;95834.19;5038188;28;19925;-72
2023/06/22 05:40:42;;;;;;;;;;;;;;;20.05;100.00;95834.00;5045504;28;19928;-73
2023/06/22 05:43:08;;;;;;;;;;;;;;;20.10;100.00;95832.72;5050039;28;20216;-72
2023/06/22 05:45:34;;;;;;;;;;;;;;;20.40;100.00;95834.09;5039732;28;19970;-73
2023/06/22 05:48:02;;;;;;;;;;;;;;;20.28;100.00;95834.34;5040701;28;20284;-73
2023/06/22 05:50:28;;;;;;;;;;;;;;;20.40;100.00;95844.63;5041910;28;19964;-72
2023/06/22 05:52:54;;;;;;;;;;;;;;;20.43;100.00;95853.03;5045409;28;20047;-72
2023/06/22 05:55:20;;;;;;;;;;;;;;;20.53;100.00;95852.94;5052538;28;19975;-72
2023/06/22 05:57:47;;;;;;;;;;;;;;;20.63;100.00;95837.06;5043598;28;20369;-72
2023/06/22 06:00:14;;;;;;;;;;;;;;;20.68;100.00;95832.94;5042488;28;20023;-72
2023/06/22 06:02:43;;;;;;;;;;;;;;;20.81;100.00;95831.72;5051771;28;20676;-72
2023/06/22 06:05:11;;;;;;;;;;;;;;;20.82;100.00;95838.63;5051213;28;19932;-72
2023/06/22 06:07:37;;;;;;;;;;;;;;;21.02;100.00;95840.00;5050959;28;19940;-72
2023/06/22 06:10:04;;;;;;;;;;;;;;;20.89;100.00;95834.38;5046983;28;19947;-72
2023/06/22 06:12:30;;;;;;;;;;;;;;;21.08;100.00;95836.75;5048508;28;19929;-72
2023/06/22 06:14:57;;;;;;;;;;;;;;;21.06;100.00;95832.59;5046772;28;20401;-73
2023/06/22 06:17:23;;;;;;;;;;;;;;;21.23;100.00;95829.06;5046585;28;19952;-72
2023/06/22 06:19:49;;;;;;;;;;;;;;;21.06;100.00;95830.81;5045505;28;19928;-73
2023/06/22 06:22:18;;;;;;;;;;;;;;;21.23;100.00;95831.69;5044519;28;19929;-73
2023/06/22 06:24:44;;;;;;;;;;;;;;;21.54;100.00;95823.22;5049319;28;19972;-73
2023/06/22 06:27:11;;;;;;;;;;;;;;;21.65;100.00;95828.16;5048340;28;19932;-73
2023/06/22 06:29:37;;;;;;;;;;;;;;;;;;5048832;28;19978;-72
2023/06/22 06:32:03;;;;;;;;;;;;;;;22.04;100.00;95838.09;5053912;28;19925;-73
2023/06/22 06:34:29;;;;;;;;;;;;;;;22.37;100.00;95836.28;5047790;28;19979;-73
2023/06/22 06:36:56;;;;;;;;;;;;;;;22.44;100.00;95834.59;5048151;28;20307;-73
2023/06/22 06:39:24;;;;;;;;;;;;;;;22.55;100.00;95833.44;5047529;28;19991;-73
2023/06/22 06:41:50;;;;;;;;;;;;;;;22.71;100.00;95830.75;5047589;28;19975;-73
2023/06/22 06:44:16;;;;;;;;;;;;;;;23.00;100.00;95824.06;5042076;28;19929;-73
2023/06/22 06:46:42;;;;;;;;;;;;;;;23.29;100.00;95818.16;5048389;28;19959;-73
2023/06/22 06:49:09;;;;;;;;;;;;;;;23.67;100.00;95819.09;5044754;28;19924;-73
2023/06/22 06:51:35;;;;;;;;;;;;;;;23.90;100.00;95809.31;5046251;28;19925;-73
2023/06/22 06:54:03;;;;;;;;;;;;;;;23.94;100.00;95812.41;5044989;28;19929;-73
2023/06/22 06:56:32;;;;;;;;;;;;;;;24.10;100.00;95809.66;5048009;28;19925;-73
2023/06/22 06:58:59;;;;;;;;;;;;;;;24.29;100.00;95810.97;5042261;28;19979;-73
2023/06/22 07:01:25;;;;;;;;;;;;;;;24.43;100.00;95809.34;5050385;28;19936;-73
2023/06/22 07:03:51;;;;;;;;;;;;;;;24.63;100.00;95805.16;5046115;28;19932;-71
2023/06/22 07:06:18;;;;;;;;;;;;;;;24.71;100.00;95806.09;5047598;28;20338;-71
2023/06/22 07:08:44;;;;;;;;;;;;;;;24.72;100.00;95797.94;5052250;28;19928;-71
2023/06/22 07:11:10;;;;;;;;;;;;;;;24.84;100.00;95803.59;5041148;28;19933;-71
2023/06/22 07:13:38;;;;;;;;;;;;;;;25.04;100.00;95795.91;5044823;28;19925;-73
2023/06/22 07:16:04;;;;;;;;;;;;;;;25.14;100.00;95798.28;5049848;28;20375;-73
2023/06/22 07:18:31;;;;;;;;;;;;;;;25.14;100.00;95799.13;5049946;28;19929;-73
2023/06/22 07:20:57;;;;;;;;;;;;;;;25.16;100.00;95794.44;5040503;28;19933;-73
2023/06/22 07:23:23;;;;;;;;;;;;;;;25.28;100.00;95787.66;5043759;28;20011;-73
2023/06/22 07:25:50;;;;;;;;;;;;;;;25.35;100.00;95785.06;5046828;28;19986;-73
2023/06/22 07:28:16;;;;;;;;;;;;;;;25.36;100.00;95781.41;5044455;28;20012;-73
2023/06/22 07:30:43;;;;;;;;;;;;;;;25.41;100.00;95778.22;5051532;28;19929;-73
2023/06/22 07:33:10;;;;;;;;;;;;;;;25.48;100.00;95784.41;5039343;28;19933;-73
2023/06/22 07:35:36;;;;;;;;;;;;;;;25.61;100.00;95786.34;5045382;28;20325;-73
2023/06/22 07:38:03;;;;;;;;;;;;;;;25.64;100.00;95788.63;5037939;28;19929;-75
2023/06/22 07:40:29;;;;;;;;;;;;;;;25.49;100.00;95788.69;5052237;28;19931;-73
2023/06/22 07:42:56;;;;;;;;;;;;;;;25.49;100.00;95776.25;5039427;28;19925;-73
2023/06/22 07:45:22;;;;;;;;;;;;;;;25.69;100.00;95781.75;5040258;28;19932;-74
2023/06/22 07:47:50;;;;;;;;;;;;;;;25.98;100.00;95780.81;5048276;28;19928;-73
2023/06/22 07:50:16;;;;;;;;;;;;;;;26.00;100.00;95778.78;5045080;28;19979;-73
2023/06/22 07:52:42;;;;;;;;;;;;;;;26.00;100.00;95793.91;5051478;28;19971;-73
2023/06/22 07:55:09;;;;;;;;;;;;;;;25.99;100.00;95792.22;5048973;28;19925;-73
2023/06/22 07:57:36;;;;;;;;;;;;;;;26.09;100.00;95802.53;5049462;28;20108;-73
2023/06/22 08:00:11;;;;;;;;;;;;;;;26.21;100.00;95807.09;5046711;28;19932;-74
2023/06/22 08:02:37;;;;;;;;;;;;;;;25.92;100.00;95810.78;5050506;28;20240;-74
2023/06/22 08:05:07;;;;;;;;;;;;;;;25.86;100.00;95813.38;5048682;28;19925;-74
2023/06/22 08:07:33;;;;;;;;;;;;;;;26.07;100.00;95808.03;5045799;28;19933;-73
2023/06/22 08:09:59;;;;;;;;;;;;;;;26.16;100.00;95822.00;5046471;28;20020;-73
2023/06/22 08:12:25;;;;;;;;;;;;;;;26.15;100.00;95823.00;5050719;28;19974;-73
2023/06/22 08:14:52;;;;;;;;;;;;;;;25.77;100.00;95832.03;5050762;28;19928;-74
2023/06/22 08:17:18;;;;;;;;;;;;;;;25.79;100.00;95832.69;5050879;28;19940;-74
2023/06/22 08:19:44;;;;;;;;;;;;;;;25.48;100.00;95848.03;5045590;28;20437;-74
2023/06/22 08:22:12;;;;;;;;;;;;;;;25.17;100.00;95848.28;5052367;28;19937;-74
2023/06/22 08:24:38;;;;;;;;;;;;;;;24.82;100.00;95851.47;5051011;28;19932;-73
2023/06/22 08:27:08;;;;;;;;;;;;;;;24.81;100.00;95838.41;5048178;28;19933;-73
2023/06/22 08:29:35;;;;;;;;;;;;;;;24.79;100.00;95843.88;5040054;28;20332;-74
2023/06/22 08:32:01;;;;;;;;;;;;;;;24.82;100.00;95824.16;5048559;28;20395;-74
2023/06/22 08:34:27;;;;;;;;;;;;;;;24.70;100.00;95831.75;5048234;28;19941;-74
2023/06/22 08:36:54;;;;;;;;;;;;;;;24.74;100.00;95840.97;5050948;28;19932;-74
2023/06/22 08:39:21;;;;;;;;;;;;;;;24.79;100.00;95849.19;5046665;28;19925;-74
2023/06/22 08:41:48;;;;;;;;;;;;;;;24.86;100.00;95854.56;5040687;28;19948;-75
2023/06/22 08:44:14;;;;;;;;;;;;;;;24.85;100.00;95848.47;5046489;28;19925;-75
2023/06/22 08:46:41;;;;;;;;;;;;;;;24.88;100.00;95847.25;5045823;28;19925;-75
2023/06/22 08:49:09;;;;;;;;;;;;;;;25.04;100.00;95838.31;5042497;28;19928;-74
2023/06/22 08:51:35;;;;;;;;;;;;;;;25.42;100.00;95822.28;5044539;28;19933;-74
2023/06/22 08:54:02;;;;;;;;;;;;;;;25.72;100.00;95818.50;5044079;28;19974;-74
2023/06/22 08:56:29;;;;;;;;;;;;;;;26.15;100.00;95810.56;5042186;28;19936;-73
2023/06/22 08:58:55;;;;;;;;;;;;;;;26.04;100.00;95800.47;5046908;28;20010;-70
2023/06/22 09:01:22;;;;;;;;;;;;;;;26.19;100.00;95789.75;5046217;28;19932;-73
2023/06/22 09:03:54;;;;;;;;;;;;;;;26.14;100.00;95793.00;5042777;28;20383;-73
2023/06/22 09:06:20;;;;;;;;;;;;;;;25.97;100.00;95788.97;5044985;28;19925;-73
2023/06/22 09:08:47;;;;;;;;;;;;;;;25.77;100.00;95784.28;5046403;28;19924;-74
2023/06/22 09:11:13;;;;;;;;;;;;;;;25.66;100.00;95783.94;5043269;28;19964;-73
2023/06/22 09:13:40;;;;;;;;;;;;;;;25.77;100.00;95789.59;5046718;28;19937;-74
2023/06/22 09:16:07;;;;;;;;;;;;;;;25.69;100.00;95780.91;5050042;28;20337;-74
2023/06/22 09:18:34;;;;;;;;;;;;;;;26.00;100.00;95778.78;5039596;28;20475;-74
2023/06/22 09:21:00;;;;;;;;;;;;;;;26.62;100.00;95779.84;5044539;28;19929;-74
2023/06/22 09:23:27;;;;;;;;;;;;;;;26.98;100.00;95778.78;5046385;28;19932;-74
2023/06/22 09:25:53;;;;;;;;;;;;;;;27.23;100.00;95774.63;5049385;28;20375;-75
2023/06/22 09:28:19;;;;;;;;;;;;;;;27.36;100.00;95765.03;5049004;28;19929;-74
2023/06/22 09:30:47;;;;;;;;;;;;;;;27.23;100.00;95761.34;5043820;28;19929;-74
2023/06/22 09:33:13;;;;;;;;;;;;;;;27.22;100.00;95756.22;5044483;28;19929;-74
2023/06/22 09:35:39;;;;;;;;;;;;;;;27.09;94.19;95753.47;5050591;28;19971;-74
2023/06/22 09:38:06;;;;;;;;;;;;;;;27.21;88.39;95755.38;5046818;28;19925;-75
2023/06/22 09:40:35;;;;;;;;;;;;;;;27.85;85.02;95746.13;5050326;28;19982;-75
2023/06/22 09:43:01;;;;;;;;;;;;;;;28.11;84.10;95744.47;5043397;28;20357;-74
2023/06/22 09:45:27;;;;;;;;;;;;;;;28.35;84.79;95743.81;5048145;28;19932;-74
2023/06/22 09:47:55;;;;;;;;;;;;;;;28.57;81.87;95748.91;5046691;28;20463;-75
2023/06/22 09:50:21;;;;;;;;;;;;;;;28.29;79.90;95739.28;5050255;28;19929;-73
2023/06/22 09:52:54;;;;;;;;;;;;;;;28.25;77.65;95738.09;5040952;28;19928;-74
2023/06/22 09:55:20;;;;;;;;;;;;;;;27.70;80.38;95724.16;5037532;28;19968;-74
2023/06/22 09:57:47;;;;;;;;;;;;;;;27.67;81.04;95717.41;5038624;28;20322;-74
2023/06/22 10:00:14;;;;;;;;;;;;;;;27.70;79.86;95724.16;5047099;28;19929;-74
2023/06/22 10:02:42;;;;;;;;;;;;;;;27.82;81.18;95727.06;5047031;28;19931;-75
2023/06/22 10:05:09;;;;;;;;;;;;;;;27.82;79.56;95719.91;5044258;28;19925;-74
2023/06/22 10:07:39;;;;;;;;;;;;;;;27.94;78.73;95722.75;5047997;28;19924;-74
2023/06/22 10:10:06;;;;;;;;;;;;;;;28.03;79.20;95716.19;5045065;28;20015;-75
2023/06/22 10:12:32;;;;;;;;;;;;;;;27.91;77.44;95712.53;5043894;28;19933;-75
2023/06/22 10:14:58;;;;;;;;;;;;;;;28.00;77.37;95703.31;5049314;28;20330;-74
2023/06/22 10:17:25;;;;;;;;;;;;;;;28.10;78.02;95708.19;5044072;28;19925;-74
2023/06/22 10:19:51;;;;;;;;;;;;;;;28.56;78.86;95712.66;5044862;28;19925;-75
2023/06/22 10:22:18;;;;;;;;;;;;;;;28.58;79.46;95706.06;5045575;28;19940;-75
2023/06/22 10:24:45;;;;;;;;;;;;;;;28.61;77.74;95708.31;5048732;28;19933;-75
2023/06/22 10:27:11;;;;;;;;;;;;;;;28.27;78.49;95698.75;5044178;28;19929;-75
2023/06/22 10:29:38;;;;;;;;;;;;;;;28.48;77.67;95703.03;5049351;28;20379;-74
2023/06/22 10:32:04;;;;;;;;;;;;;;;28.62;78.04;95703.78;5040851;28;19947;-74
2023/06/22 10:34:31;;;;;;;;;;;;;;;28.51;78.19;95712.44;5042217;28;19972;-74
2023/06/22 10:36:57;;;;;;;;;;;;;;;28.60;78.16;95711.19;5042918;28;19935;-74
2023/06/22 10:39:25;;;;;;;;;;;;;;;28.55;77.83;95714.47;5038011;28;19925;-74
2023/06/22 10:41:51;;;;;;;;;;;;;;;28.81;76.31;95708.25;5050221;28;19978;-75
2023/06/22 10:44:17;;;;;;;;;;;;;;;28.80;76.42;95711.13;5051746;28;19928;-75
2023/06/22 10:46:44;;;;;;;;;;;;;;;28.88;76.00;95706.34;5051985;28;19936;-75
2023/06/22 10:49:10;;;;;;;;;;;;;;;29.17;76.13;95704.19;5050772;28;19948;-75
2023/06/22 10:51:36;;;;;;;;;;;;;;;29.36;74.28;95710.44;5053275;28;19999;-74
2023/06/22 10:54:04;;;;;;;;;;;;;;;29.07;74.84;95715.34;5050256;28;19955;-74
2023/06/22 10:56:33;;;;;;;;;;;;;;;29.03;73.91;95703.44;5046512;28;19925;-74
2023/06/22 10:58:59;;;;;;;;;;;;;;;29.22;73.74;95699.06;5051659;28;19929;-74
2023/06/22 11:01:26;;;;;;;;;;;;;;;29.40;73.75;95703.63;5052713;28;19933;-74
2023/06/22 11:03:52;;;;;;;;;;;;;;;29.82;75.26;95699.47;5048781;28;19929;-74
2023/06/22 11:06:18;;;;;;;;;;;;;;;29.45;73.30;95700.34;5051928;28;19955;-74
2023/06/22 11:08:45;;;;;;;;;;;;;;;29.52;71.39;95703.78;5049417;28;19928;-74
2023/06/22 11:11:11;;;;;;;;;;;;;;;29.36;72.50;95699.75;5052429;28;19974;-74
2023/06/22 11:13:38;;;;;;;;;;;;;;;29.28;71.08;95700.84;5049561;28;19932;-74
2023/06/22 11:16:05;;;;;;;;;;;;;;;29.36;71.64;95705.09;5048140;28;19948;-74
2023/06/22 11:18:33;;;;;;;;;;;;;;;29.40;72.96;95692.97;5051863;28;19928;-74
2023/06/22 11:20:59;;;;;;;;;;;;;;;29.54;72.30;95689.16;5048084;28;19925;-74
2023/06/22 11:23:26;;;;;;;;;;;;;;;29.56;73.84;95681.78;5050397;28;19932;-74
2023/06/22 11:25:52;;;;;;;;;;;;;;;29.54;72.44;95683.84;5045939;28;20377;-74
2023/06/22 11:28:18;;;;;;;;;;;;;;;29.75;72.48;95692.56;5051991;28;20038;-74
2023/06/22 11:30:46;;;;;;;;;;;;;;;29.73;73.45;95679.41;5044347;28;19933;-74
2023/06/22 11:33:12;;;;;;;;;;;;;;;29.61;74.03;95670.47;5046546;28;19982;-74
2023/06/22 11:35:38;;;;;;;;;;;;;;;29.68;72.14;95667.75;5052490;28;19935;-74
2023/06/22 11:38:05;;;;;;;;;;;;;;;29.51;73.69;95665.59;5041336;28;19925;-74
2023/06/22 11:40:31;;;;;;;;;;;;;;;29.42;72.80;95672.22;5050291;28;19925;-74
2023/06/22 11:42:57;;;;;;;;;;;;;;;29.26;73.87;95678.06;5050143;28;19929;-74
2023/06/22 11:45:23;;;;;;;;;;;;;;;29.17;74.91;95683.66;5042952;28;19928;-74
2023/06/22 11:47:51;;;;;;;;;;;;;;;29.10;73.30;95684.75;5045075;28;19933;-74
2023/06/22 11:50:17;;;;;;;;;;;;;;;28.91;72.24;95692.59;5047475;28;20387;-74
2023/06/22 11:52:44;;;;;;;;;;;;;;;28.82;73.77;95701.06;5045531;28;19940;-74
2023/06/22 11:55:10;;;;;;;;;;;;;;;28.78;74.87;95707.88;5049923;28;19932;-74
2023/06/22 11:57:37;;;;;;;;;;;;;;;28.79;75.14;95717.47;5050915;28;20383;-75
2023/06/22 12:00:18;;;;;;;;;;;;;;;28.74;74.95;95714.63;5050659;28;20339;-74
2023/06/22 12:02:45;;;;;;;;;;;;;;;28.79;74.53;95736.97;5048180;28;19932;-74
2023/06/22 12:05:13;;;;;;;;;;;;;;;28.75;74.96;95726.94;5040644;28;19972;-75
2023/06/22 12:07:39;;;;;;;;;;;;;;;28.76;74.57;95718.72;5045765;28;19928;-74
2023/06/22 12:10:06;;;;;;;;;;;;;;;28.91;74.55;95719.25;5051070;28;19924;-75
2023/06/22 12:12:33;;;;;;;;;;;;;;;29.06;76.03;95707.53;5047174;28;19944;-72
2023/06/22 12:15:03;;;;;;;;;;;;;;;29.31;75.89;95708.41;5042010;28;19932;-75
2023/06/22 12:17:29;;;;;;;;;;;;;;;29.37;73.71;95706.75;5042887;28;19930;-75
2023/06/22 12:19:55;;;;;;;;;;;;;;;29.49;77.13;95705.03;5050368;28;19928;-75
2023/06/22 12:22:23;;;;;;;;;;;;;;;29.23;73.97;95710.53;5045210;28;20463;-75
2023/06/22 12:24:49;;;;;;;;;;;;;;;29.31;72.32;95708.41;5049851;28;19929;-74
2023/06/22 12:27:17;;;;;;;;;;;;;;;29.25;70.49;95714.59;5049134;28;19933;-74
2023/06/22 12:29:44;;;;;;;;;;;;;;;29.09;70.06;95710.59;5049891;28;19928;-74
2023/06/22 12:32:12;;;;;;;;;;;;;;;29.22;71.55;95708.88;5047896;28;19929;-74
2023/06/22 12:34:39;;;;;;;;;;;;;;;29.17;70.49;95718.34;5048085;28;20391;-75
2023/06/22 12:37:05;;;;;;;;;;;;;;;29.21;68.85;95713.41;5049807;28;19990;-75
2023/06/22 12:39:33;;;;;;;;;;;;;;;29.28;70.81;95714.19;5050231;28;19939;-73